Darstellungsparameter: Aktuell verwendete Einstellungen:
Skalierung der Graphiken ... ?
xyx+y,   Skalierungsfaktor:      Skalierung: Modus: x, Faktor: 1
Darstellungszeitraum ... ?
Vom - - bis: - -   Zeitraum: 26.03.2021 - 26.03.2021
Min/Max/Avg-Anzeige ... ?
Zeige MMA aktuell
Zeige MMA Monat
Zeige MMA alles
Zeige --A aktuell
Zeige --A Monat
Zeige --A alles
Keine MMA-Anzeige
MMA:
Keine MMA-Graphiken
MMA-Basis: 26.03.2021 - 26.03.2021
Quicknavigation für Darstellung... ?
Tage:      1T, 2T, 3T, 5T -1T -2T -3T -5T +1T +2T +3T +5T
Wochen: 1W, 2W, 3W -1W -2W -3W +1W +2W +3W
Monate: 1M, 3M, 6M -1M -3M -6M +1M +3M +6M
Jahre:    1J, 3J, 5J, 10J -1J -3J -5J -10J +1J +3J +5J +10J
Nutze für die Darstellung ... ?
Originaldaten oder Mittelwerte auf ...
Stundenbasis Tagesbasis Wochenbasis
Monatsbasis Jahresbasis      Datenbasis: Original-Daten
Darstellen als:
Statistik (Auto) Statistik J:M      Darstellung:
Zur Graphik,    zurück zur Übersicht aller Sensoren.
 
Tabellarische Datenbersicht: ?
 
Sensor: Nr:Datum:Temp:Feuchte:Taupunkt:
Aussen-T/F 1 26-03-2021 00:00:00 6.7 C 90 % 5.18 C
2 26-03-2021 00:05:00 6.7 C 90 % 5.18 C
3 26-03-2021 00:10:00 6.7 C 90 % 5.18 C
4 26-03-2021 00:15:00 6.6 C 90 % 5.08 C
5 26-03-2021 00:20:00 6.6 C 90 % 5.08 C
6 26-03-2021 00:25:00 6.4 C 90 % 4.88 C
7 26-03-2021 00:30:00 6.2 C 90 % 4.69 C
8 26-03-2021 00:35:00 6.1 C 90 % 4.59 C
9 26-03-2021 00:40:00 5.9 C 90 % 4.39 C
10 26-03-2021 00:45:00 5.9 C 90 % 4.39 C
11 26-03-2021 00:50:00 5.8 C 91 % 4.45 C
12 26-03-2021 00:55:00 5.8 C 91 % 4.45 C
13 26-03-2021 01:00:00 5.8 C 92 % 4.6 C
14 26-03-2021 01:05:00 5.9 C 92 % 4.7 C
15 26-03-2021 01:10:00 5.9 C 92 % 4.7 C
16 26-03-2021 01:15:00 5.9 C 92 % 4.7 C
17 26-03-2021 01:20:00 6 C 92 % 4.8 C
18 26-03-2021 01:25:00 6 C 92 % 4.8 C
19 26-03-2021 01:30:00 6.1 C 92 % 4.9 C
20 26-03-2021 01:35:00 6.1 C 93 % 5.06 C
21 26-03-2021 01:40:00 6.2 C 93 % 5.15 C
22 26-03-2021 01:45:00 6.2 C 93 % 5.15 C
23 26-03-2021 01:50:00 6.2 C 93 % 5.15 C
24 26-03-2021 01:55:00 6.2 C 93 % 5.15 C
25 26-03-2021 02:00:00 6.3 C 93 % 5.25 C
Sensor: Nr:Datum:Temp:Feuchte:Taupunkt:
Aussen-T/F 26 26-03-2021 02:05:00 6.3 C 93 % 5.25 C
27 26-03-2021 02:10:00 6.3 C 93 % 5.25 C
28 26-03-2021 02:15:00 6.3 C 93 % 5.25 C
29 26-03-2021 02:20:00 6.3 C 93 % 5.25 C
30 26-03-2021 02:25:00 6.3 C 93 % 5.25 C
31 26-03-2021 02:30:00 6.3 C 93 % 5.25 C
32 26-03-2021 02:35:00 6.3 C 93 % 5.25 C
33 26-03-2021 02:40:00 6.3 C 93 % 5.25 C
34 26-03-2021 02:45:00 6.2 C 92 % 5 C
35 26-03-2021 02:50:00 6.2 C 92 % 5 C
36 26-03-2021 02:55:00 6.2 C 93 % 5.15 C
37 26-03-2021 03:00:00 6.2 C 93 % 5.15 C
38 26-03-2021 03:05:00 6.2 C 93 % 5.15 C
39 26-03-2021 03:10:00 6.2 C 93 % 5.15 C
40 26-03-2021 03:15:00 6.3 C 93 % 5.25 C
41 26-03-2021 03:20:00 6.3 C 93 % 5.25 C
42 26-03-2021 03:25:00 6.4 C 93 % 5.35 C
43 26-03-2021 03:30:00 6.4 C 93 % 5.35 C
44 26-03-2021 03:35:00 6.4 C 93 % 5.35 C
45 26-03-2021 03:40:00 6.4 C 93 % 5.35 C
46 26-03-2021 03:45:00 6.4 C 93 % 5.35 C
47 26-03-2021 03:50:00 6.4 C 93 % 5.35 C
48 26-03-2021 03:55:00 6.4 C 93 % 5.35 C
49 26-03-2021 04:00:00 6.4 C 93 % 5.35 C
50 26-03-2021 04:05:00 6.4 C 92 % 5.2 C
Sensor: Nr:Datum:Temp:Feuchte:Taupunkt:
Aussen-T/F 51 26-03-2021 04:10:00 6.3 C 92 % 5.1 C
52 26-03-2021 04:15:00 6.3 C 92 % 5.1 C
53 26-03-2021 04:20:00 6.2 C 92 % 5 C
54 26-03-2021 04:25:00 5.9 C 91 % 4.55 C
55 26-03-2021 04:30:00 5.8 C 91 % 4.45 C
56 26-03-2021 04:35:00 5.6 C 91 % 4.25 C
57 26-03-2021 04:40:00 5.3 C 91 % 3.95 C
58 26-03-2021 04:45:00 5.2 C 91 % 3.85 C
59 26-03-2021 04:50:00 5.1 C 91 % 3.76 C
60 26-03-2021 04:55:00 4.9 C 91 % 3.56 C
61 26-03-2021 05:00:00 4.8 C 92 % 3.61 C
62 26-03-2021 05:05:00 4.7 C 92 % 3.51 C
63 26-03-2021 05:10:00 4.6 C 92 % 3.42 C
64 26-03-2021 05:15:00 4.6 C 92 % 3.42 C
65 26-03-2021 05:20:00 4.6 C 93 % 3.57 C
66 26-03-2021 05:25:00 4.5 C 93 % 3.47 C
67 26-03-2021 05:30:00 4.3 C 92 % 3.12 C
68 26-03-2021 05:35:00 4.2 C 92 % 3.02 C
69 26-03-2021 05:40:00 4.1 C 93 % 3.07 C
70 26-03-2021 05:45:00 4.1 C 93 % 3.07 C
71 26-03-2021 05:50:00 3.9 C 93 % 2.87 C
72 26-03-2021 05:55:00 3.8 C 93 % 2.77 C
73 26-03-2021 06:00:00 3.7 C 93 % 2.68 C
74 26-03-2021 06:05:00 3.7 C 93 % 2.68 C
75 26-03-2021 06:10:00 3.6 C 93 % 2.58 C
Sensor: Nr:Datum:Temp:Feuchte:Taupunkt:
Aussen-T/F 76 26-03-2021 06:15:00 3.5 C 93 % 2.48 C
77 26-03-2021 06:20:00 3.4 C 93 % 2.38 C
78 26-03-2021 06:25:00 3.3 C 93 % 2.28 C
79 26-03-2021 06:30:00 3.3 C 94 % 2.43 C
80 26-03-2021 06:35:00 3.2 C 94 % 2.33 C
81 26-03-2021 06:40:00 3.2 C 94 % 2.33 C
82 26-03-2021 06:45:00 3.1 C 94 % 2.23 C
83 26-03-2021 06:50:00 3.1 C 94 % 2.23 C
84 26-03-2021 06:55:00 3.1 C 94 % 2.23 C
85 26-03-2021 07:00:00 3.2 C 94 % 2.33 C
86 26-03-2021 07:05:00 3.3 C 95 % 2.58 C
87 26-03-2021 07:10:00 3.3 C 94 % 2.43 C
88 26-03-2021 07:15:00 3.4 C 95 % 2.68 C
89 26-03-2021 07:20:00 3.7 C 95 % 2.98 C
90 26-03-2021 07:25:00 3.8 C 95 % 3.07 C
91 26-03-2021 07:30:00 3.9 C 95 % 3.17 C
92 26-03-2021 07:35:00 4.1 C 95 % 3.37 C
93 26-03-2021 07:40:00 4.1 C 95 % 3.37 C
94 26-03-2021 07:45:00 4.2 C 95 % 3.47 C
95 26-03-2021 07:50:00 4.2 C 95 % 3.47 C
96 26-03-2021 07:55:00 4.3 C 95 % 3.57 C
97 26-03-2021 08:00:00 4.3 C 95 % 3.57 C
98 26-03-2021 08:05:00 4.3 C 95 % 3.57 C
99 26-03-2021 08:10:00 4.3 C 95 % 3.57 C
100 26-03-2021 08:15:00 4.3 C 95 % 3.57 C
Sensor: Nr:Datum:Temp:Feuchte:Taupunkt:
Aussen-T/F 101 26-03-2021 08:20:00 4.4 C 95 % 3.67 C
102 26-03-2021 08:25:00 4.4 C 95 % 3.67 C
103 26-03-2021 08:30:00 4.5 C 95 % 3.77 C
104 26-03-2021 08:35:00 4.6 C 95 % 3.87 C
105 26-03-2021 08:40:00 4.7 C 95 % 3.97 C
106 26-03-2021 08:45:00 4.8 C 96 % 4.22 C
107 26-03-2021 08:50:00 4.9 C 96 % 4.32 C
108 26-03-2021 08:55:00 5.1 C 96 % 4.52 C
109 26-03-2021 09:00:00 5.2 C 96 % 4.62 C
110 26-03-2021 09:05:00 5.4 C 96 % 4.81 C
111 26-03-2021 09:10:00 5.6 C 96 % 5.01 C
112 26-03-2021 09:15:00 5.8 C 96 % 5.21 C
113 26-03-2021 09:20:00 5.9 C 96 % 5.31 C
114 26-03-2021 09:25:00 6.1 C 96 % 5.51 C
115 26-03-2021 09:30:00 6.2 C 96 % 5.61 C
116 26-03-2021 09:35:00 6.4 C 96 % 5.81 C
117 26-03-2021 09:40:00 6.6 C 96 % 6.01 C
118 26-03-2021 09:45:00 6.8 C 96 % 6.21 C
119 26-03-2021 09:50:00 7 C 97 % 6.56 C
120 26-03-2021 09:55:00 7.3 C 96 % 6.71 C
121 26-03-2021 10:00:00 7.6 C 96 % 7 C
122 26-03-2021 10:05:00 7.9 C 96 % 7.3 C
123 26-03-2021 10:10:00 8.1 C 96 % 7.5 C
124 26-03-2021 10:15:00 8.4 C 96 % 7.8 C
125 26-03-2021 10:20:00 8.7 C 96 % 8.1 C
Sensor: Nr:Datum:Temp:Feuchte:Taupunkt:
Aussen-T/F 126 26-03-2021 10:25:00 8.9 C 95 % 8.14 C
127 26-03-2021 10:30:00 9.2 C 95 % 8.44 C
128 26-03-2021 10:35:00 9.5 C 94 % 8.58 C
129 26-03-2021 10:40:00 9.8 C 92 % 8.56 C
130 26-03-2021 10:45:00 10.1 C 89 % 8.37 C
131 26-03-2021 10:50:00 10.6 C 85 % 8.19 C
132 26-03-2021 10:55:00 11.3 C 81 % 8.16 C
133 26-03-2021 11:00:00 11.8 C 77 % 7.9 C
134 26-03-2021 11:05:00 12.3 C 75 % 8 C
135 26-03-2021 11:10:00 12.5 C 74 % 8 C
136 26-03-2021 11:15:00 12.7 C 70 % 7.38 C
137 26-03-2021 11:20:00 12.9 C 70 % 7.57 C
138 26-03-2021 11:25:00 13.3 C 66 % 7.09 C
139 26-03-2021 11:30:00 13.6 C 65 % 7.15 C
140 26-03-2021 11:35:00 13.8 C 64 % 7.12 C
141 26-03-2021 11:40:00 14.2 C 63 % 7.27 C
142 26-03-2021 11:45:00 14.6 C 61 % 7.17 C
143 26-03-2021 11:50:00 14.9 C 62 % 7.69 C
144 26-03-2021 11:55:00 15 C 58 % 6.81 C
145 26-03-2021 12:00:00 15 C 57 % 6.56 C
146 26-03-2021 12:05:00 14.8 C 59 % 6.87 C
147 26-03-2021 12:10:00 14.7 C 59 % 6.78 C
148 26-03-2021 12:15:00 14.6 C 60 % 6.93 C
149 26-03-2021 12:20:00 14.8 C 60 % 7.12 C
150 26-03-2021 12:25:00 14.9 C 58 % 6.72 C
Sensor: Nr:Datum:Temp:Feuchte:Taupunkt:
Aussen-T/F 151 26-03-2021 12:30:00 15.1 C 59 % 7.16 C
152 26-03-2021 12:35:00 15.2 C 57 % 6.75 C
153 26-03-2021 12:40:00 15 C 58 % 6.81 C
154 26-03-2021 12:45:00 15 C 60 % 7.31 C
155 26-03-2021 12:50:00 15.3 C 58 % 7.09 C
156 26-03-2021 12:55:00 15.4 C 56 % 6.68 C
157 26-03-2021 13:00:00 15.4 C 56 % 6.68 C
158 26-03-2021 13:05:00 15.5 C 56 % 6.77 C
159 26-03-2021 13:10:00 15.8 C 57 % 7.31 C
160 26-03-2021 13:15:00 16 C 55 % 6.97 C
161 26-03-2021 13:20:00 16.2 C 54 % 6.89 C
162 26-03-2021 13:25:00 15.9 C 54 % 6.61 C
163 26-03-2021 13:30:00 15.8 C 54 % 6.52 C
164 26-03-2021 13:35:00 15.8 C 55 % 6.79 C
165 26-03-2021 13:40:00 15.7 C 54 % 6.43 C
166 26-03-2021 13:45:00 15.8 C 54 % 6.52 C
167 26-03-2021 13:50:00 16.1 C 54 % 6.8 C
168 26-03-2021 13:55:00 16.2 C 54 % 6.89 C
169 26-03-2021 14:00:00 16 C 55 % 6.97 C
170 26-03-2021 14:05:00 15.8 C 54 % 6.52 C
171 26-03-2021 14:10:00 15.7 C 55 % 6.69 C
172 26-03-2021 14:15:00 15.9 C 54 % 6.61 C
173 26-03-2021 14:20:00 16.2 C 54 % 6.89 C
174 26-03-2021 14:25:00 16.3 C 53 % 6.71 C
175 26-03-2021 14:30:00 16.3 C 52 % 6.44 C
Sensor: Nr:Datum:Temp:Feuchte:Taupunkt:
Aussen-T/F 176 26-03-2021 14:35:00 16.5 C 51 % 6.34 C
177 26-03-2021 14:40:00 16.5 C 51 % 6.34 C
178 26-03-2021 14:45:00 16.4 C 53 % 6.81 C
179 26-03-2021 14:50:00 16.3 C 51 % 6.16 C
180 26-03-2021 14:55:00 16.3 C 52 % 6.44 C
181 26-03-2021 15:00:00 16.2 C 52 % 6.34 C
182 26-03-2021 15:05:00 16.3 C 51 % 6.16 C
183 26-03-2021 15:10:00 16.3 C 52 % 6.44 C
184 26-03-2021 15:15:00 16.3 C 52 % 6.44 C
185 26-03-2021 15:20:00 16.4 C 51 % 6.25 C
186 26-03-2021 15:25:00 16.4 C 52 % 6.53 C
187 26-03-2021 15:30:00 16.7 C 53 % 7.08 C
188 26-03-2021 15:35:00 16.9 C 51 % 6.71 C
189 26-03-2021 15:40:00 16.8 C 51 % 6.62 C
190 26-03-2021 15:45:00 16.6 C 52 % 6.71 C
191 26-03-2021 15:50:00 16.4 C 52 % 6.53 C
192 26-03-2021 15:55:00 16.3 C 52 % 6.44 C
193 26-03-2021 16:00:00 16.3 C 54 % 6.98 C
194 26-03-2021 16:05:00 16.2 C 52 % 6.34 C
195 26-03-2021 16:10:00 16.2 C 52 % 6.34 C
196 26-03-2021 16:15:00 16.2 C 53 % 6.62 C
197 26-03-2021 16:20:00 16.3 C 53 % 6.71 C
198 26-03-2021 16:25:00 16.5 C 53 % 6.9 C
199 26-03-2021 16:30:00 16.5 C 52 % 6.62 C
200 26-03-2021 16:35:00 16.4 C 52 % 6.53 C
Sensor: Nr:Datum:Temp:Feuchte:Taupunkt:
Aussen-T/F 201 26-03-2021 16:40:00 16.4 C 52 % 6.53 C
202 26-03-2021 16:45:00 16.5 C 52 % 6.62 C
203 26-03-2021 16:50:00 16.6 C 51 % 6.43 C
204 26-03-2021 16:55:00 16.4 C 51 % 6.25 C
205 26-03-2021 17:00:00 16.2 C 51 % 6.06 C
206 26-03-2021 17:05:00 15.9 C 53 % 6.34 C
207 26-03-2021 17:10:00 15.7 C 53 % 6.16 C
208 26-03-2021 17:15:00 15.6 C 54 % 6.34 C
209 26-03-2021 17:20:00 15.6 C 54 % 6.34 C
210 26-03-2021 17:25:00 15.5 C 54 % 6.24 C
211 26-03-2021 17:30:00 15.4 C 54 % 6.15 C
212 26-03-2021 17:35:00 15.4 C 54 % 6.15 C
213 26-03-2021 17:40:00 15.5 C 55 % 6.51 C
214 26-03-2021 17:45:00 15.8 C 54 % 6.52 C
215 26-03-2021 17:50:00 16.1 C 53 % 6.53 C
216 26-03-2021 17:55:00 15.9 C 53 % 6.34 C
217 26-03-2021 18:00:00 15.8 C 54 % 6.52 C
218 26-03-2021 18:05:00 15.6 C 55 % 6.6 C
219 26-03-2021 18:10:00 15.6 C 55 % 6.6 C
220 26-03-2021 18:15:00 15.6 C 55 % 6.6 C
221 26-03-2021 18:20:00 15.4 C 56 % 6.68 C
222 26-03-2021 18:25:00 15.4 C 56 % 6.68 C
223 26-03-2021 18:30:00 15.2 C 55 % 6.23 C
224 26-03-2021 18:35:00 15 C 56 % 6.3 C
225 26-03-2021 18:40:00 14.8 C 57 % 6.37 C
Sensor: Nr:Datum:Temp:Feuchte:Taupunkt:
Aussen-T/F 226 26-03-2021 18:45:00 14.6 C 58 % 6.44 C
227 26-03-2021 18:50:00 14.3 C 60 % 6.65 C
228 26-03-2021 18:55:00 14 C 62 % 6.84 C
229 26-03-2021 19:00:00 13.6 C 63 % 6.7 C
230 26-03-2021 19:05:00 13.2 C 64 % 6.55 C
231 26-03-2021 19:10:00 12.9 C 65 % 6.49 C
232 26-03-2021 19:15:00 12.7 C 66 % 6.52 C
233 26-03-2021 19:20:00 12.4 C 68 % 6.67 C
234 26-03-2021 19:25:00 12.3 C 68 % 6.57 C
235 26-03-2021 19:30:00 12.1 C 69 % 6.59 C
236 26-03-2021 19:35:00 12 C 70 % 6.71 C
237 26-03-2021 19:40:00 11.9 C 70 % 6.61 C
238 26-03-2021 19:45:00 11.8 C 69 % 6.31 C
239 26-03-2021 19:50:00 11.7 C 69 % 6.21 C
240 26-03-2021 19:55:00 11.6 C 69 % 6.11 C
241 26-03-2021 20:00:00 11.6 C 70 % 6.32 C
242 26-03-2021 20:05:00 11.4 C 69 % 5.92 C
243 26-03-2021 20:10:00 11.4 C 70 % 6.13 C
244 26-03-2021 20:15:00 11.3 C 70 % 6.03 C
245 26-03-2021 20:20:00 11.3 C 69 % 5.83 C
246 26-03-2021 20:25:00 11.2 C 69 % 5.73 C
247 26-03-2021 20:30:00 11.2 C 69 % 5.73 C
248 26-03-2021 20:35:00 11.1 C 70 % 5.84 C
249 26-03-2021 20:40:00 11.1 C 70 % 5.84 C
250 26-03-2021 20:45:00 10.9 C 70 % 5.65 C
Sensor: Nr:Datum:Temp:Feuchte:Taupunkt:
Aussen-T/F 251 26-03-2021 20:50:00 10.8 C 70 % 5.56 C
252 26-03-2021 20:55:00 10.7 C 70 % 5.46 C
253 26-03-2021 21:00:00 10.6 C 70 % 5.36 C
254 26-03-2021 21:05:00 10.5 C 70 % 5.27 C
255 26-03-2021 21:10:00 10.4 C 71 % 5.38 C
256 26-03-2021 21:15:00 10.3 C 72 % 5.48 C
257 26-03-2021 21:20:00 10.2 C 72 % 5.39 C
258 26-03-2021 21:25:00 10.1 C 73 % 5.49 C
259 26-03-2021 21:30:00 9.9 C 74 % 5.49 C
260 26-03-2021 21:35:00 9.7 C 74 % 5.3 C
261 26-03-2021 21:40:00 9.6 C 75 % 5.39 C
262 26-03-2021 21:45:00 9.6 C 75 % 5.39 C
263 26-03-2021 21:50:00 9.4 C 75 % 5.2 C
264 26-03-2021 21:55:00 9.4 C 76 % 5.39 C
265 26-03-2021 22:00:00 9.3 C 76 % 5.29 C
266 26-03-2021 22:05:00 9.2 C 76 % 5.2 C
267 26-03-2021 22:10:00 9.1 C 77 % 5.29 C
268 26-03-2021 22:15:00 9.1 C 77 % 5.29 C
269 26-03-2021 22:20:00 8.9 C 78 % 5.28 C
270 26-03-2021 22:25:00 8.9 C 78 % 5.28 C
271 26-03-2021 22:30:00 8.9 C 78 % 5.28 C
272 26-03-2021 22:35:00 8.8 C 78 % 5.18 C
273 26-03-2021 22:40:00 8.8 C 78 % 5.18 C
274 26-03-2021 22:45:00 8.8 C 78 % 5.18 C
275 26-03-2021 22:50:00 8.7 C 78 % 5.08 C
Sensor: Nr:Datum:Temp:Feuchte:Taupunkt:
Aussen-T/F 276 26-03-2021 22:55:00 8.7 C 78 % 5.08 C
277 26-03-2021 23:00:00 8.7 C 78 % 5.08 C
278 26-03-2021 23:05:00 8.7 C 79 % 5.27 C
279 26-03-2021 23:10:00 8.7 C 78 % 5.08 C
280 26-03-2021 23:15:00 8.7 C 78 % 5.08 C
281 26-03-2021 23:20:00 8.7 C 78 % 5.08 C
282 26-03-2021 23:25:00 8.7 C 78 % 5.08 C
283 26-03-2021 23:30:00 8.6 C 78 % 4.99 C
284 26-03-2021 23:35:00 8.4 C 78 % 4.79 C
285 26-03-2021 23:40:00 8.4 C 79 % 4.98 C
286 26-03-2021 23:45:00 8.3 C 79 % 4.88 C
287 26-03-2021 23:50:00 8.2 C 79 % 4.78 C
288 26-03-2021 23:55:00 8.1 C 80 % 4.86 C

Legende:
   Min
   Max


Maximal/Minimal-Werte vom 26.03.2021 - 26.03.2021

Sensor Min Max Avg
Temp
(Aussen-T/F)
3.1 °C
26-03-2021  06:45:00
16.9 °C
26-03-2021  15:35:00
9.88 °C
Feuchte
(Aussen-T/F)
51 %
26-03-2021  14:35:00
97 %
26-03-2021  09:50:00
76.59 %
Taupunkt
(Aussen-T/F)
2.23 C
26-03-2021  06:45:00
8.58 C
26-03-2021  10:35:00
5.5 C

Die Daten stammen von einer Davis Vantage Pro 2 Wetter-Station und werden unter Linux mit der Software wview2wettercgi und aufbereitet. Alle Angaben erfolgen ohne Gewähr für ihre Vollständigkeit oder Richtigkeit.
Kontakt: Rainer Krienke krienke@uni-koblenz.de . Meine Webseiten an der Uni Koblenz oder privat.
Version: $Revision: 0.78 $